createdAt,value
2023-01-17T00:02:10.966Z,2.08
2023-01-17T00:04:37.396Z,1.65
2023-01-17T00:07:03.882Z,1.90
2023-01-17T00:09:30.311Z,2.63
2023-01-17T00:11:56.990Z,2.03
2023-01-17T00:14:23.461Z,2.25
2023-01-17T00:16:49.913Z,2.67
2023-01-17T00:19:16.478Z,4.88
2023-01-17T00:21:42.884Z,1.85
2023-01-17T00:24:09.304Z,1.83
2023-01-17T00:26:35.734Z,2.60
2023-01-17T00:29:02.156Z,2.10
2023-01-17T00:31:28.670Z,0.73
2023-01-17T00:33:55.162Z,2.95
2023-01-17T00:36:27.934Z,1.25
2023-01-17T00:38:56.804Z,1.02
2023-01-17T00:41:23.275Z,2.58
2023-01-17T00:43:49.677Z,0.85
2023-01-17T00:46:16.235Z,3.33
2023-01-17T00:48:42.737Z,2.67
2023-01-17T00:51:09.145Z,2.20
2023-01-17T00:53:35.651Z,2.72
2023-01-17T00:56:03.048Z,0.85
2023-01-17T00:58:29.506Z,3.60
2023-01-17T01:00:56.007Z,1.83
2023-01-17T01:03:22.519Z,1.02
2023-01-17T01:05:48.930Z,2.35
2023-01-17T01:08:24.427Z,1.15
2023-01-17T01:10:50.851Z,0.52
2023-01-17T01:13:17.325Z,3.33
2023-01-17T01:15:43.755Z,3.00
2023-01-17T01:18:11.273Z,1.35
2023-01-17T01:20:37.685Z,2.60
2023-01-17T01:23:05.330Z,2.17
2023-01-17T01:25:31.743Z,2.15
2023-01-17T01:28:12.205Z,2.58
2023-01-17T01:30:38.626Z,1.55
2023-01-17T01:33:09.395Z,2.13
2023-01-17T01:35:36.542Z,2.10
2023-01-17T01:38:03.356Z,1.60
2023-01-17T01:40:30.008Z,2.30
2023-01-17T01:42:58.294Z,1.80
2023-01-17T01:45:26.557Z,1.50
2023-01-17T01:48:34.600Z,1.27
2023-01-17T01:51:03.618Z,1.55
2023-01-17T01:53:30.291Z,1.20
2023-01-17T01:55:56.744Z,1.55
2023-01-17T01:58:24.715Z,1.70
2023-01-17T02:00:51.237Z,1.35
2023-01-17T02:03:21.121Z,1.02
2023-01-17T02:05:47.537Z,1.85
2023-01-17T02:08:18.002Z,1.38
2023-01-17T02:10:44.445Z,1.42
2023-01-17T02:13:11.339Z,1.67
2023-01-17T02:15:56.646Z,2.42
2023-01-17T02:18:29.063Z,2.28
2023-01-17T02:21:19.942Z,3.25
2023-01-17T02:24:13.747Z,3.10
2023-01-17T02:27:03.296Z,2.17
2023-01-17T02:29:53.969Z,2.22
2023-01-17T02:32:44.384Z,2.72
2023-01-17T02:35:24.905Z,2.65
2023-01-17T02:38:14.441Z,2.78
2023-01-17T02:40:52.562Z,3.28
2023-01-17T02:43:18.975Z,3.22
2023-01-17T02:45:45.427Z,3.05
2023-01-17T02:48:13.603Z,4.07
2023-01-17T02:51:15.928Z,5.18
2023-01-17T02:53:59.364Z,2.90
2023-01-17T02:57:07.972Z,4.47
2023-01-17T02:59:58.918Z,5.00
2023-01-17T03:03:02.427Z,3.95
2023-01-17T03:05:47.101Z,3.50
2023-01-17T03:08:13.497Z,6.55
2023-01-17T03:10:39.953Z,3.33
2023-01-17T03:13:06.369Z,3.70
2023-01-17T03:15:32.801Z,4.43
2023-01-17T03:18:02.002Z,3.60
2023-01-17T03:20:28.434Z,4.97
2023-01-17T03:22:54.927Z,4.35
2023-01-17T03:25:21.383Z,4.57
2023-01-17T03:27:47.816Z,5.93
2023-01-17T03:30:14.248Z,5.43
2023-01-17T03:32:40.666Z,7.18
2023-01-17T03:35:07.327Z,5.85
2023-01-17T03:37:33.767Z,5.32
2023-01-17T03:40:00.169Z,7.28
2023-01-17T03:42:26.604Z,8.65
2023-01-17T03:44:53.013Z,6.57
2023-01-17T03:47:19.443Z,7.63
2023-01-17T03:49:45.895Z,6.50
2023-01-17T03:52:12.286Z,6.43
2023-01-17T03:54:38.728Z,5.88
2023-01-17T03:57:05.134Z,6.15
2023-01-17T03:59:31.588Z,6.28
2023-01-17T04:01:58.073Z,3.95
2023-01-17T04:04:24.527Z,4.35
2023-01-17T04:06:50.925Z,3.33
2023-01-17T04:09:17.384Z,2.85
2023-01-17T04:11:43.773Z,2.05
2023-01-17T04:14:10.167Z,3.00
2023-01-17T04:16:36.791Z,2.38
2023-01-17T04:19:03.261Z,3.10
2023-01-17T04:21:29.684Z,2.60
2023-01-17T04:23:56.109Z,3.45
2023-01-17T04:26:22.543Z,3.00
2023-01-17T04:28:48.971Z,2.55
2023-01-17T04:31:16.540Z,5.03
2023-01-17T04:33:43.071Z,4.28
2023-01-17T04:36:09.668Z,3.95
2023-01-17T04:38:36.074Z,4.75
2023-01-17T04:41:02.511Z,4.38
2023-01-17T04:43:28.920Z,4.43
2023-01-17T04:45:56.256Z,3.25
2023-01-17T04:48:22.783Z,3.88
2023-01-17T04:50:49.211Z,3.67
2023-01-17T04:53:15.721Z,3.50
2023-01-17T04:55:45.478Z,3.28
2023-01-17T04:58:11.956Z,4.20
2023-01-17T05:00:38.380Z,3.78
2023-01-17T05:03:04.785Z,3.92
2023-01-17T05:05:31.209Z,3.38
2023-01-17T05:07:57.845Z,5.57
2023-01-17T05:10:24.810Z,4.28
2023-01-17T05:12:58.208Z,4.75
2023-01-17T05:15:24.960Z,7.32
2023-01-17T05:17:51.937Z,6.07
2023-01-17T05:20:19.195Z,6.60
2023-01-17T05:22:45.620Z,3.85
2023-01-17T05:25:12.030Z,4.53
2023-01-17T05:27:38.506Z,4.70
2023-01-17T05:30:05.481Z,4.93
2023-01-17T05:32:31.938Z,4.68
2023-01-17T05:34:58.343Z,5.38
2023-01-17T05:37:24.782Z,3.75
2023-01-17T05:39:51.272Z,4.25
2023-01-17T05:42:17.689Z,3.00
2023-01-17T05:44:44.129Z,3.35
2023-01-17T05:47:10.608Z,3.72
2023-01-17T05:49:37.008Z,2.72
2023-01-17T05:52:03.501Z,1.73
2023-01-17T05:54:29.951Z,1.90
2023-01-17T05:56:56.400Z,1.75
2023-01-17T05:59:32.383Z,0.77
2023-01-17T06:02:03.205Z,1.13
2023-01-17T06:04:29.658Z,0.35
2023-01-17T06:06:56.117Z,0.88
2023-01-17T06:09:22.509Z,0.30
2023-01-17T06:11:48.930Z,1.58
2023-01-17T06:14:15.396Z,0.65
2023-01-17T06:16:41.940Z,0.10
2023-01-17T06:19:08.394Z,2.78
2023-01-17T06:21:34.842Z,2.22
2023-01-17T06:24:03.295Z,0.35
2023-01-17T06:26:30.605Z,0.80
2023-01-17T06:28:57.062Z,2.45
2023-01-17T06:31:23.468Z,1.23
2023-01-17T06:33:49.935Z,2.20
2023-01-17T06:36:16.436Z,0.50
2023-01-17T06:38:42.918Z,2.22
2023-01-17T06:41:09.508Z,1.23
2023-01-17T06:43:35.989Z,1.48
2023-01-17T06:46:02.484Z,0.17
2023-01-17T06:48:28.959Z,1.55
2023-01-17T06:50:57.495Z,0.40
2023-01-17T06:53:23.982Z,2.92
2023-01-17T06:55:50.467Z,2.10
2023-01-17T06:58:16.906Z,3.33
2023-01-17T07:00:43.355Z,2.40
2023-01-17T07:03:18.252Z,2.65
2023-01-17T07:05:44.715Z,3.05
2023-01-17T07:08:11.148Z,3.00
2023-01-17T07:10:37.558Z,2.15
2023-01-17T07:13:04.013Z,1.80
2023-01-17T07:15:30.446Z,2.45
2023-01-17T07:17:56.948Z,5.55
2023-01-17T07:20:23.359Z,3.22
2023-01-17T07:22:49.806Z,2.97
2023-01-17T07:25:16.296Z,2.22
2023-01-17T07:27:42.728Z,2.10
2023-01-17T07:30:09.878Z,2.45
2023-01-17T07:32:36.284Z,1.17
2023-01-17T07:35:03.960Z,1.88
2023-01-17T07:37:30.367Z,2.78
2023-01-17T07:39:56.809Z,2.85
2023-01-17T07:42:24.176Z,4.75
2023-01-17T07:44:50.898Z,2.05
2023-01-17T07:47:17.308Z,4.93
2023-01-17T07:49:43.744Z,2.53
2023-01-17T07:52:10.158Z,4.38
2023-01-17T07:54:36.600Z,6.60
2023-01-17T07:57:03.160Z,3.72
2023-01-17T07:59:29.602Z,3.00
2023-01-17T08:01:56.104Z,1.85
2023-01-17T08:04:25.768Z,3.75
2023-01-17T08:06:52.203Z,1.60
2023-01-17T08:09:18.655Z,4.20
2023-01-17T08:11:45.039Z,4.47
2023-01-17T08:14:11.451Z,1.75
2023-01-17T08:16:37.966Z,4.80
2023-01-17T08:19:04.366Z,1.70
2023-01-17T08:21:30.835Z,1.65
2023-01-17T08:23:57.240Z,3.40
2023-01-17T08:26:23.706Z,1.38
2023-01-17T08:28:57.359Z,0.43
2023-01-17T08:31:24.003Z,3.70
2023-01-17T08:33:50.493Z,4.35
2023-01-17T08:36:16.995Z,2.63
2023-01-17T08:38:43.439Z,3.60
2023-01-17T08:41:11.188Z,4.70
2023-01-17T08:43:37.599Z,4.55
2023-01-17T08:46:04.184Z,5.30
2023-01-17T08:48:33.070Z,1.90
2023-01-17T08:51:06.114Z,6.32
2023-01-17T08:53:32.755Z,1.65
2023-01-17T08:56:00.881Z,2.10
2023-01-17T08:58:30.294Z,3.25
2023-01-17T09:01:01.475Z,2.95
2023-01-17T09:03:28.015Z,3.90
2023-01-17T09:06:11.569Z,5.20
2023-01-17T09:08:38.177Z,1.85
2023-01-17T09:11:11.272Z,4.68
2023-01-17T09:13:38.058Z,2.13
2023-01-17T09:16:04.860Z,4.93
2023-01-17T09:18:31.554Z,3.42
2023-01-17T09:20:58.153Z,4.88
2023-01-17T09:23:28.074Z,1.75
2023-01-17T09:28:21.282Z,0.93
2023-01-17T09:30:47.923Z,3.13
2023-01-17T09:33:14.846Z,1.65
2023-01-17T09:35:41.273Z,3.50
2023-01-17T09:38:07.761Z,4.40
2023-01-17T09:40:34.229Z,2.25
2023-01-17T09:43:02.082Z,2.00
2023-01-17T09:45:30.229Z,3.47
2023-01-17T09:47:56.675Z,2.47
2023-01-17T09:50:32.124Z,2.20
2023-01-17T09:53:06.956Z,2.00
2023-01-17T09:56:03.718Z,3.03
2023-01-17T09:59:02.292Z,2.58
2023-01-17T10:01:38.866Z,6.25
2023-01-17T10:04:19.983Z,2.95
2023-01-17T10:07:24.030Z,0.25
2023-01-17T10:10:05.565Z,4.82
2023-01-17T10:12:53.902Z,1.95
2023-01-17T10:16:03.154Z,2.67
2023-01-17T10:18:57.549Z,1.13
2023-01-17T10:21:45.552Z,2.30
2023-01-17T10:24:44.985Z,1.40
2023-01-17T10:27:21.662Z,0.65
2023-01-17T10:29:48.164Z,3.05
2023-01-17T10:32:14.674Z,5.95
2023-01-17T10:34:47.644Z,1.80
2023-01-17T10:37:30.640Z,1.75
2023-01-17T10:39:57.967Z,2.97
2023-01-17T10:42:40.847Z,3.00
2023-01-17T10:45:18.164Z,3.97
2023-01-17T10:47:48.133Z,1.88
2023-01-17T10:50:14.768Z,0.22
2023-01-17T10:52:57.160Z,1.65
2023-01-17T10:55:29.503Z,0.65
2023-01-17T10:57:56.020Z,2.38
2023-01-17T11:00:25.036Z,2.40
2023-01-17T11:02:51.602Z,0.82
2023-01-17T11:05:26.305Z,0.95
2023-01-17T11:08:05.931Z,0.85
2023-01-17T11:10:38.041Z,0.45
2023-01-17T11:13:05.804Z,1.95
2023-01-17T11:15:33.633Z,0.85
2023-01-17T11:18:05.764Z,3.13
2023-01-17T11:20:37.169Z,2.15
2023-01-17T11:23:12.501Z,1.83
2023-01-17T11:25:38.960Z,6.82
2023-01-17T11:28:22.973Z,2.78
2023-01-17T11:31:22.689Z,1.60
2023-01-17T11:33:50.359Z,1.73
2023-01-17T11:36:29.402Z,4.70
2023-01-17T11:39:02.762Z,1.98
2023-01-17T11:41:39.455Z,3.88
2023-01-17T11:44:34.283Z,3.80
2023-01-17T11:47:17.918Z,5.78
2023-01-17T11:49:46.235Z,1.05
2023-01-17T11:52:26.447Z,2.47
2023-01-17T11:54:54.140Z,1.50
2023-01-17T11:57:32.203Z,1.52
2023-01-17T12:00:20.460Z,2.25
2023-01-17T12:03:00.842Z,0.35
2023-01-17T12:05:42.472Z,1.02
2023-01-17T12:08:27.811Z,1.20
2023-01-17T12:10:56.915Z,2.00
2023-01-17T12:13:23.192Z,1.17
2023-01-17T12:15:49.553Z,0.28
2023-01-17T12:18:44.952Z,1.13
2023-01-17T12:21:21.533Z,2.20
2023-01-17T12:24:06.151Z,1.58
2023-01-17T12:27:07.930Z,0.68
2023-01-17T12:29:47.947Z,3.42
2023-01-17T12:32:17.471Z,0.95
2023-01-17T12:34:47.630Z,1.35
2023-01-17T12:37:37.878Z,0.73
2023-01-17T12:40:43.786Z,0.40
2023-01-17T12:43:15.472Z,1.40
2023-01-17T12:45:47.528Z,2.35
2023-01-17T12:48:20.848Z,0.70
2023-01-17T12:51:06.955Z,0.40
2023-01-17T12:53:48.410Z,1.10
2023-01-17T12:56:26.890Z,1.20
2023-01-17T12:59:03.772Z,1.17
2023-01-17T13:01:32.573Z,0.55
2023-01-17T13:04:17.064Z,0.08
2023-01-17T13:06:58.670Z,1.13
2023-01-17T13:09:25.164Z,0.30
2023-01-17T13:11:54.863Z,0.75
2023-01-17T13:14:21.313Z,1.85
2023-01-17T13:17:17.435Z,3.20
2023-01-17T13:19:55.471Z,1.25
2023-01-17T13:22:22.156Z,2.85
2023-01-17T13:25:03.471Z,1.17
2023-01-17T13:27:46.509Z,0.80
2023-01-17T13:30:30.843Z,3.85
2023-01-17T13:33:06.838Z,5.07
2023-01-17T13:35:40.773Z,3.80
2023-01-17T13:38:47.910Z,2.63
2023-01-17T13:41:48.113Z,2.55
2023-01-17T13:44:14.605Z,1.50
2023-01-17T13:46:56.310Z,2.47
2023-01-17T13:52:01.353Z,0.80
2023-01-17T13:54:31.821Z,2.78
2023-01-17T13:57:23.063Z,3.00
2023-01-17T13:59:49.781Z,3.05
2023-01-17T14:02:31.491Z,0.98
2023-01-17T14:07:52.400Z,1.70
2023-01-17T14:10:41.534Z,1.92
2023-01-17T14:13:36.608Z,1.95
2023-01-17T14:16:33.190Z,2.38
2023-01-17T14:18:59.669Z,3.00
2023-01-17T14:21:30.408Z,3.97
2023-01-17T14:24:06.226Z,2.97
2023-01-17T14:26:35.256Z,1.50
2023-01-17T14:29:39.953Z,1.90
2023-01-17T14:32:08.953Z,2.75
2023-01-17T14:34:35.380Z,1.60
2023-01-17T14:37:31.361Z,2.00
2023-01-17T14:39:57.965Z,2.65
2023-01-17T14:42:25.155Z,3.70
2023-01-17T14:45:05.552Z,0.70
2023-01-17T14:47:37.524Z,2.05
2023-01-17T14:50:26.336Z,0.93
2023-01-17T14:53:11.288Z,2.10
2023-01-17T14:55:38.426Z,1.20
2023-01-17T14:58:04.885Z,2.92
2023-01-17T15:00:31.353Z,1.80
2023-01-17T15:02:58.150Z,3.08
2023-01-17T15:05:25.298Z,1.30
2023-01-17T15:07:53.553Z,1.33
2023-01-17T15:10:30.645Z,4.18
2023-01-17T15:12:57.557Z,2.17
2023-01-17T15:15:34.802Z,1.27
2023-01-17T15:18:18.409Z,2.58
2023-01-17T15:21:11.886Z,0.50
2023-01-17T15:23:40.416Z,1.25
2023-01-17T15:26:07.275Z,1.02
2023-01-17T15:28:34.326Z,0.60
2023-01-17T15:31:06.303Z,2.03
2023-01-17T15:33:37.622Z,4.25
2023-01-17T15:36:32.078Z,0.57
2023-01-17T15:39:26.579Z,2.30
2023-01-17T15:41:53.681Z,0.98
2023-01-17T15:44:49.988Z,2.13
2023-01-17T15:47:43.005Z,1.10
2023-01-17T15:50:21.380Z,3.28
2023-01-17T15:52:51.799Z,1.13
2023-01-17T15:55:37.088Z,1.60
2023-01-17T15:58:04.203Z,0.93
2023-01-17T16:00:36.215Z,0.98
2023-01-17T16:03:33.224Z,2.72
2023-01-17T16:06:00.465Z,2.28
2023-01-17T16:08:32.282Z,0.85
2023-01-17T16:11:00.680Z,0.95
2023-01-17T16:13:27.462Z,3.65
2023-01-17T16:15:53.894Z,1.90
2023-01-17T16:18:24.074Z,2.25
2023-01-17T16:21:20.413Z,1.30
2023-01-17T16:23:46.920Z,2.22
2023-01-17T16:26:13.352Z,1.27
2023-01-17T16:28:39.798Z,1.45
2023-01-17T16:31:06.270Z,1.02
2023-01-17T16:33:32.802Z,1.17
2023-01-17T16:35:59.222Z,1.25
2023-01-17T16:38:25.854Z,1.00
2023-01-17T16:40:52.281Z,2.10
2023-01-17T16:43:19.002Z,2.22
2023-01-17T16:45:46.939Z,3.22
2023-01-17T16:48:14.792Z,2.45
2023-01-17T16:50:45.722Z,5.35
2023-01-17T16:53:12.205Z,3.40
2023-01-17T16:55:39.096Z,3.35
2023-01-17T16:58:05.593Z,1.85
2023-01-17T17:00:32.060Z,1.95
2023-01-17T17:02:58.533Z,2.97
2023-01-17T17:05:25.045Z,3.70
2023-01-17T17:07:51.931Z,5.80
2023-01-17T17:10:19.627Z,4.60
2023-01-17T17:12:46.071Z,3.53
2023-01-17T17:15:12.769Z,3.70
2023-01-17T17:17:40.792Z,2.47
2023-01-17T17:20:08.631Z,5.13
2023-01-17T17:22:35.080Z,4.88
2023-01-17T17:25:03.127Z,4.07
2023-01-17T17:27:29.580Z,4.95
2023-01-17T17:29:56.050Z,3.03
2023-01-17T17:32:22.506Z,3.58
2023-01-17T17:34:49.015Z,4.43
2023-01-17T17:37:15.483Z,5.40
2023-01-17T17:39:42.121Z,4.40
2023-01-17T17:42:15.560Z,6.20
2023-01-17T17:44:42.153Z,6.25
2023-01-17T17:47:09.244Z,4.07
2023-01-17T17:49:35.698Z,5.18
2023-01-17T17:52:08.314Z,4.78
2023-01-17T17:54:34.996Z,4.30
2023-01-17T17:57:01.545Z,3.67
2023-01-17T17:59:28.004Z,5.50
2023-01-17T18:01:54.543Z,3.97
2023-01-17T18:04:21.167Z,4.30
2023-01-17T18:06:47.627Z,6.10
2023-01-17T18:09:14.132Z,5.88
2023-01-17T18:11:41.563Z,5.20
2023-01-17T18:14:08.889Z,5.95
2023-01-17T18:16:37.067Z,8.70
2023-01-17T18:19:03.798Z,5.25
2023-01-17T18:21:37.000Z,8.43
2023-01-17T18:24:05.337Z,3.72
2023-01-17T18:26:38.652Z,6.03
2023-01-17T18:29:06.505Z,7.60
2023-01-17T18:31:33.285Z,4.13
2023-01-17T18:34:01.133Z,5.20
2023-01-17T18:36:27.755Z,6.53
2023-01-17T18:38:54.228Z,8.20
2023-01-17T18:41:27.434Z,7.75
2023-01-17T18:43:53.906Z,4.55
2023-01-17T18:46:20.465Z,4.68
2023-01-17T18:48:46.954Z,4.70
2023-01-17T18:51:14.755Z,7.18
2023-01-17T18:53:42.132Z,6.72
2023-01-17T18:56:10.338Z,7.05
2023-01-17T18:58:38.850Z,5.40
2023-01-17T19:01:09.319Z,9.27
2023-01-17T19:03:36.020Z,9.93
2023-01-17T19:06:03.351Z,6.28
2023-01-17T19:08:30.625Z,3.42
2023-01-17T19:10:57.320Z,5.30
2023-01-17T19:13:23.908Z,5.65
2023-01-17T19:15:50.420Z,9.93
2023-01-17T19:18:19.436Z,13.68
2023-01-17T19:20:45.935Z,8.20
2023-01-17T19:23:12.421Z,5.57
2023-01-17T19:25:38.840Z,9.30
2023-01-17T19:28:05.249Z,8.00
2023-01-17T19:30:31.701Z,7.15
2023-01-17T19:32:58.185Z,10.18
2023-01-17T19:35:26.960Z,10.82
2023-01-17T19:37:53.655Z,12.68
2023-01-17T19:40:20.281Z,10.75
2023-01-17T19:42:47.055Z,9.90
2023-01-17T19:45:14.124Z,7.40
2023-01-17T19:47:40.668Z,10.13
2023-01-17T19:50:08.162Z,11.40
2023-01-17T19:52:35.385Z,6.70
2023-01-17T19:55:02.225Z,11.48
2023-01-17T19:57:31.801Z,9.45
2023-01-17T20:00:01.812Z,6.53
2023-01-17T20:02:28.741Z,6.78
2023-01-17T20:04:55.390Z,11.93
2023-01-17T20:07:21.900Z,8.73
2023-01-17T20:09:48.345Z,6.63
2023-01-17T20:12:17.972Z,11.52
2023-01-17T20:14:45.719Z,10.60
2023-01-17T20:17:12.872Z,10.40
2023-01-17T20:19:39.420Z,10.15
2023-01-17T20:22:05.910Z,8.98
2023-01-17T20:24:32.401Z,8.50
2023-01-17T20:27:00.101Z,10.85
2023-01-17T20:29:26.609Z,9.23
2023-01-17T20:31:53.072Z,6.90
2023-01-17T20:34:19.641Z,7.75
2023-01-17T20:36:46.117Z,8.05
2023-01-17T20:39:14.242Z,6.68
2023-01-17T20:41:41.724Z,7.45
2023-01-17T20:44:12.960Z,8.77
2023-01-17T20:46:40.829Z,7.22
2023-01-17T20:49:11.479Z,6.95
2023-01-17T20:51:37.974Z,10.15
2023-01-17T20:54:04.719Z,8.00
2023-01-17T20:56:31.381Z,8.52
2023-01-17T20:58:57.925Z,6.25
2023-01-17T21:01:24.507Z,6.13
2023-01-17T21:03:51.509Z,6.72
2023-01-17T21:06:18.680Z,6.75
2023-01-17T21:08:45.484Z,6.10
2023-01-17T21:11:13.507Z,7.63
2023-01-17T21:13:39.991Z,6.63
2023-01-17T21:16:07.226Z,15.00
2023-01-17T21:18:33.701Z,11.07
2023-01-17T21:21:04.418Z,6.95
2023-01-17T21:23:31.050Z,6.43
2023-01-17T21:25:57.593Z,6.82
2023-01-17T21:28:25.097Z,9.45
2023-01-17T21:30:52.267Z,6.75
2023-01-17T21:33:19.149Z,8.52
2023-01-17T21:35:45.724Z,7.60
2023-01-17T21:38:12.238Z,6.10
2023-01-17T21:40:38.774Z,6.97
2023-01-17T21:43:05.300Z,6.18
2023-01-17T21:45:32.044Z,9.38
2023-01-17T21:47:59.013Z,7.10
2023-01-17T21:50:33.296Z,5.57
2023-01-17T21:53:00.149Z,8.65
2023-01-17T21:55:26.669Z,7.53
2023-01-17T21:57:53.197Z,7.28
2023-01-17T22:00:19.773Z,5.53
2023-01-17T22:02:46.962Z,7.80
2023-01-17T22:05:13.749Z,8.20
2023-01-17T22:07:40.412Z,6.35
2023-01-17T22:10:07.075Z,7.30
2023-01-17T22:12:33.648Z,8.07
2023-01-17T22:15:00.158Z,13.10
2023-01-17T22:17:26.639Z,7.68
2023-01-17T22:19:53.050Z,7.72
2023-01-17T22:22:19.477Z,9.25
2023-01-17T22:24:45.924Z,6.93
2023-01-17T22:27:12.380Z,4.53
2023-01-17T22:29:38.830Z,5.80
2023-01-17T22:32:05.382Z,6.72
2023-01-17T22:34:31.843Z,5.10
2023-01-17T22:36:58.298Z,7.45
2023-01-17T22:39:24.789Z,9.00
2023-01-17T22:41:51.251Z,7.20
2023-01-17T22:44:17.680Z,5.75
2023-01-17T22:46:44.221Z,6.57
2023-01-17T22:49:12.534Z,9.07
2023-01-17T22:51:38.994Z,6.97
2023-01-17T22:54:05.482Z,12.93
2023-01-17T22:56:32.596Z,5.40
2023-01-17T22:58:59.781Z,6.63
2023-01-17T23:01:27.921Z,8.82
2023-01-17T23:04:02.046Z,7.40
2023-01-17T23:06:30.681Z,7.90
2023-01-17T23:08:59.154Z,7.03
2023-01-17T23:11:32.224Z,9.00
2023-01-17T23:13:58.658Z,10.60
2023-01-17T23:16:25.070Z,7.90
2023-01-17T23:18:51.487Z,10.55
2023-01-17T23:21:17.869Z,9.68
2023-01-17T23:23:44.405Z,8.85
2023-01-17T23:26:10.798Z,10.30
2023-01-17T23:28:37.261Z,9.80
2023-01-17T23:31:03.745Z,7.75
2023-01-17T23:33:30.191Z,8.35
2023-01-17T23:35:56.603Z,9.40
2023-01-17T23:38:23.087Z,11.13
2023-01-17T23:40:49.607Z,9.98
2023-01-17T23:43:16.051Z,8.73
2023-01-17T23:45:42.507Z,7.75
2023-01-17T23:48:09.156Z,12.35
2023-01-17T23:50:36.524Z,9.90
2023-01-17T23:53:02.945Z,10.70
2023-01-17T23:55:29.359Z,9.93
2023-01-17T23:57:55.764Z,11.60
